Time;durP1;ratioP1;P1;durP2;ratioP2;P2;SDS_P1;SDS_P2;PMS_P1;PMS_P2;Temp;Humidity;BMP_temperature;BMP_pressure;BME280_temperature;BME280_humidity;BME280_pressure;Samples;Min_cycle;Max_cycle;Signal;HPM_P1;HPM_P2
2023/08/20 00:01:27;;;;;;;0.08;0.08;;;;;;;18.09;100.00;97029.03;4984049;28;20463;-81
2023/08/20 00:04:14;;;;;;;0.08;0.08;;;;;;;18.07;100.00;97034.72;4983312;28;20879;-81
2023/08/20 00:07:00;;;;;;;0.00;0.00;;;;;;;18.12;100.00;97039.28;4982833;28;20106;-81
2023/08/20 00:09:46;;;;;;;0.00;0.00;;;;;;;18.12;100.00;97035.75;4982811;28;20728;-81
2023/08/20 00:12:32;;;;;;;0.00;0.00;;;;;;;18.14;100.00;97036.31;4983779;28;20034;-81
2023/08/20 00:15:19;;;;;;;0.03;0.03;;;;;;;18.17;100.00;97038.44;4981891;28;20551;-81
2023/08/20 00:18:05;;;;;;;0.05;0.05;;;;;;;18.16;100.00;97042.25;4982368;28;20038;-81
2023/08/20 00:20:53;;;;;;;0.00;0.00;;;;;;;18.14;100.00;97039.81;4967733;28;20041;-81
2023/08/20 00:23:39;;;;;;;0.00;0.00;;;;;;;18.07;100.00;97040.13;4973152;28;20042;-81
2023/08/20 00:26:25;;;;;;;0.00;0.00;;;;;;;17.91;100.00;97043.25;4970747;28;20042;-81
2023/08/20 00:29:11;;;;;;;0.00;0.00;;;;;;;17.91;100.00;97049.47;4982902;28;20484;-81
2023/08/20 00:31:57;;;;;;;0.10;0.10;;;;;;;17.96;100.00;97044.00;4982545;28;20153;-82
2023/08/20 00:34:43;;;;;;;0.00;0.00;;;;;;;17.93;100.00;97047.28;4983001;28;20463;-81
2023/08/20 00:37:31;;;;;;;0.10;0.10;;;;;;;17.76;100.00;97050.38;4980389;28;20045;-81
2023/08/20 00:40:17;;;;;;;0.03;0.03;;;;;;;17.77;100.00;97051.16;4971300;28;20050;-81
2023/08/20 00:43:03;;;;;;;0.10;0.10;;;;;;;17.79;100.00;97057.09;4980155;28;20038;-81
2023/08/20 00:45:49;;;;;;;0.00;0.00;;;;;;;17.71;100.00;97053.09;4961265;28;20048;-81
2023/08/20 00:48:35;;;;;;;0.00;0.00;;;;;;;17.77;100.00;97062.81;4970593;28;20753;-81
2023/08/20 00:51:22;;;;;;;0.10;0.10;;;;;;;17.83;100.00;97066.31;4984401;28;20063;-81
2023/08/20 00:54:08;;;;;;;0.00;0.00;;;;;;;17.88;100.00;97063.53;4980027;28;20045;-81
2023/08/20 00:56:54;;;;;;;0.00;0.00;;;;;;;17.90;100.00;97053.25;4982077;28;20049;-81
2023/08/20 00:59:41;;;;;;;0.00;0.00;;;;;;;17.85;100.00;97047.88;4971749;28;20038;-81
2023/08/20 01:02:27;;;;;;;0.10;0.10;;;;;;;17.61;100.00;97052.31;4981255;28;20045;-81
2023/08/20 01:05:14;;;;;;;0.03;0.03;;;;;;;17.66;100.00;97060.38;4981051;28;20049;-81
2023/08/20 01:08:33;;;;;;;0.00;0.00;;;;;;;17.66;100.00;97053.06;4981160;28;20514;-79
2023/08/20 01:11:33;;;;;;;0.05;0.05;;;;;;;17.59;100.00;97051.75;4959431;28;20049;-79
2023/08/20 01:14:20;;;;;;;0.10;0.10;;;;;;;17.57;100.00;97062.06;4981855;28;20050;-79
2023/08/20 01:17:08;;;;;;;0.10;0.10;;;;;;;17.47;100.00;97058.31;4981637;28;20096;-79
2023/08/20 01:19:57;;;;;;;0.05;0.05;;;;;;;17.60;100.00;97061.53;4981091;28;20582;-80
2023/08/20 01:22:58;;;;;;;0.00;0.00;;;;;;;17.55;100.00;97054.22;4969073;28;20045;-79
2023/08/20 01:25:59;;;;;;;0.10;0.10;;;;;;;17.61;100.00;97055.03;4981398;28;20061;-79
2023/08/20 01:28:46;;;;;;;0.10;0.10;;;;;;;17.68;100.00;97053.63;4981579;28;20048;-79
2023/08/20 01:31:33;;;;;;;0.05;0.05;;;;;;;17.72;100.00;97060.13;4971339;28;20597;-80
2023/08/20 01:34:19;;;;;;;0.00;0.00;;;;;;;17.66;100.00;97068.50;4973301;28;20054;-79
2023/08/20 01:37:05;;;;;;;0.10;0.10;;;;;;;17.63;100.00;97069.88;4981224;28;20687;-79
2023/08/20 01:39:50;;;;;;;0.08;0.08;;;;;;;17.50;100.00;97068.59;4970990;28;20537;-80
2023/08/20 01:42:40;;;;;;;0.10;0.10;;;;;;;17.44;100.00;97067.00;4980401;28;20046;-79
2023/08/20 01:45:26;;;;;;;0.00;0.00;;;;;;;17.39;100.00;97069.72;4981981;28;20041;-79
2023/08/20 01:48:12;;;;;;;0.10;0.10;;;;;;;17.42;100.00;97076.47;4981030;28;20042;-79
2023/08/20 01:50:57;;;;;;;0.00;0.00;;;;;;;17.49;100.00;97061.56;4967771;28;20042;-79
2023/08/20 01:53:46;;;;;;;0.10;0.10;;;;;;;17.52;100.00;97058.31;4972806;28;20061;-80
2023/08/20 01:56:32;;;;;;;0.10;0.10;;;;;;;17.59;100.00;97059.88;4981121;28;20121;-80
2023/08/20 01:59:18;;;;;;;0.10;0.10;;;;;;;17.61;100.00;97063.13;4971371;28;20038;-80
2023/08/20 02:02:05;;;;;;;0.08;0.08;;;;;;;17.58;100.00;97059.06;4967740;28;20149;-79
2023/08/20 02:04:51;;;;;;;0.00;0.00;;;;;;;17.52;100.00;97058.31;4982377;28;20049;-79
2023/08/20 02:07:37;;;;;;;0.00;0.00;;;;;;;17.53;100.00;97061.81;4975649;28;20034;-80
2023/08/20 02:10:23;;;;;;;0.00;0.00;;;;;;;17.53;100.00;97059.94;4966862;28;20057;-80
2023/08/20 02:13:09;;;;;;;0.10;0.10;;;;;;;17.51;100.00;97047.78;4980036;28;20256;-80
2023/08/20 02:16:02;;;;;;;0.10;0.10;;;;;;;17.50;100.00;97041.53;4974488;28;20857;-80
2023/08/20 02:18:48;;;;;;;0.10;0.10;;;;;;;17.46;100.00;97037.78;4973836;28;20542;-80
2023/08/20 02:21:35;;;;;;;0.08;0.08;;;;;;;17.31;100.00;97034.34;4966759;28;20041;-80
2023/08/20 02:24:21;;;;;;;0.10;0.10;;;;;;;17.29;100.00;97045.44;4980848;28;20042;-80
2023/08/20 02:27:07;;;;;;;0.10;0.10;;;;;;;17.23;100.00;97031.13;4981151;28;20101;-79
2023/08/20 02:29:52;;;;;;;0.10;0.10;;;;;;;16.97;100.00;97025.00;4979833;28;20042;-80
2023/08/20 02:32:39;;;;;;;0.10;0.10;;;;;;;16.81;100.00;97017.19;4981176;28;20100;-80
2023/08/20 02:35:25;;;;;;;0.10;0.10;;;;;;;16.79;100.00;97016.66;4979448;28;20504;-80
2023/08/20 02:38:11;;;;;;;0.00;0.00;;;;;;;16.78;100.00;97017.75;4980154;28;20104;-80
2023/08/20 02:40:57;;;;;;;0.08;0.08;;;;;;;16.89;100.00;97006.66;4966773;28;20037;-80
2023/08/20 02:43:42;;;;;;;0.10;0.10;;;;;;;16.84;100.00;97006.66;4981919;28;20045;-80
2023/08/20 02:46:29;;;;;;;0.00;0.00;;;;;;;16.86;100.00;97025.28;4971237;28;20870;-80
2023/08/20 02:49:17;;;;;;;0.00;0.00;;;;;;;16.89;100.00;97025.56;4983766;28;20128;-80
2023/08/20 02:52:03;;;;;;;0.00;0.00;;;;;;;16.93;100.00;97023.94;4982370;28;20093;-80
2023/08/20 02:54:49;;;;;;;0.10;0.10;;;;;;;16.85;100.00;97035.31;4983810;28;20049;-80
2023/08/20 02:57:34;;;;;;;0.10;0.10;;;;;;;16.90;100.00;97032.59;4970310;28;20068;-80
2023/08/20 03:00:20;;;;;;;0.10;0.10;;;;;;;16.96;100.00;97028.78;4975714;28;20041;-80
2023/08/20 03:03:08;;;;;;;0.08;0.08;;;;;;;17.05;100.00;97022.81;4970993;28;20045;-81
2023/08/20 03:05:54;;;;;;;0.10;0.10;;;;;;;17.09;100.00;97031.97;4974564;28;20037;-80
2023/08/20 03:08:42;;;;;;;0.03;0.03;;;;;;;17.05;100.00;97041.75;4983976;28;20035;-81
2023/08/20 03:11:28;;;;;;;0.05;0.05;;;;;;;17.05;100.00;97030.94;4974627;28;20054;-81
2023/08/20 03:14:14;;;;;;;0.10;0.10;;;;;;;17.08;100.00;97035.78;4974797;28;20042;-80
2023/08/20 03:17:00;;;;;;;0.00;0.00;;;;;;;17.13;100.00;97044.69;4977443;28;20042;-81
2023/08/20 03:20:00;;;;;;;0.00;0.00;;;;;;;17.19;100.00;97043.56;4986462;28;20084;-81
2023/08/20 03:22:46;;;;;;;0.00;0.00;;;;;;;17.20;100.00;97050.63;4983495;28;20582;-81
2023/08/20 03:25:32;;;;;;;0.00;0.00;;;;;;;17.22;100.00;97034.09;4984708;28;20048;-81
2023/08/20 03:28:18;;;;;;;0.10;0.10;;;;;;;17.20;100.00;97042.50;4983644;28;20957;-80
2023/08/20 03:31:04;;;;;;;0.05;0.05;;;;;;;17.23;100.00;97052.75;4983945;28;20145;-80
2023/08/20 03:33:55;;;;;;;0.10;0.10;;;;;;;17.24;100.00;97053.56;4977727;28;20107;-80
2023/08/20 03:36:41;;;;;;;0.10;0.10;;;;;;;17.12;100.00;97044.94;4976477;28;20532;-80
2023/08/20 03:39:27;;;;;;;0.05;0.05;;;;;;;17.11;100.00;97060.34;4984841;28;20052;-81
2023/08/20 03:42:13;;;;;;;0.10;0.10;;;;;;;17.13;100.00;97046.59;4970236;28;20681;-80
2023/08/20 03:44:58;;;;;;;0.00;0.00;;;;;;;17.13;100.00;97054.69;4977044;28;20178;-81
2023/08/20 03:47:46;;;;;;;0.10;0.10;;;;;;;17.15;100.00;97047.91;4974315;28;20038;-81
2023/08/20 03:50:32;;;;;;;0.10;0.10;;;;;;;17.07;100.00;97058.50;4983430;28;20120;-81
2023/08/20 03:53:18;;;;;;;0.10;0.10;;;;;;;17.10;100.00;97053.34;4982662;28;20125;-81
2023/08/20 03:56:04;;;;;;;0.10;0.10;;;;;;;17.11;100.00;97057.66;4968183;28;20123;-81
2023/08/20 03:58:52;;;;;;;0.00;0.00;;;;;;;17.14;100.00;97061.72;4981086;28;20507;-81
2023/08/20 04:01:39;;;;;;;0.03;0.03;;;;;;;17.14;100.00;97059.00;4970021;28;20042;-81
2023/08/20 04:04:25;;;;;;;0.10;0.10;;;;;;;17.11;100.00;97059.53;4982339;28;20049;-80
2023/08/20 04:07:11;;;;;;;0.10;0.10;;;;;;;16.98;100.00;97061.75;4974211;28;20660;-80
2023/08/20 04:09:57;;;;;;;0.10;0.10;;;;;;;17.02;100.00;97063.91;4957833;28;20610;-80
2023/08/20 04:12:43;;;;;;;0.10;0.10;;;;;;;17.03;100.00;97073.63;4970722;28;20113;-81
2023/08/20 04:15:29;;;;;;;0.10;0.10;;;;;;;17.04;100.00;97072.53;4976187;28;20041;-80
2023/08/20 04:18:15;;;;;;;0.00;0.00;;;;;;;17.05;100.00;97082.28;4969735;28;20042;-80
2023/08/20 04:21:01;;;;;;;0.10;0.10;;;;;;;17.06;100.00;97083.91;4984835;28;20034;-80
2023/08/20 04:23:47;;;;;;;0.10;0.10;;;;;;;17.14;100.00;97086.06;4984496;28;20042;-80
2023/08/20 04:26:33;;;;;;;0.10;0.10;;;;;;;17.14;100.00;97091.47;4975479;28;20038;-80
2023/08/20 04:29:19;;;;;;;0.00;0.00;;;;;;;17.20;100.00;97088.47;4985383;28;20046;-81
2023/08/20 04:32:05;;;;;;;0.10;0.10;;;;;;;17.19;100.00;97086.03;4974006;28;20035;-80
2023/08/20 04:34:53;;;;;;;0.10;0.10;;;;;;;17.02;100.00;97074.72;4979914;28;20045;-82
2023/08/20 04:37:40;;;;;;;0.10;0.10;;;;;;;17.01;100.00;97079.31;4972828;28;20038;-82
2023/08/20 04:40:26;;;;;;;0.00;0.00;;;;;;;16.93;100.00;97072.56;4981431;28;20724;-81
2023/08/20 04:43:12;;;;;;;0.10;0.10;;;;;;;16.89;100.00;97068.81;4926162;28;1370806;-81
2023/08/20 04:46:01;;;;;;;0.10;0.10;;;;;;;17.00;100.00;97085.81;4975282;28;20528;-82
2023/08/20 04:48:48;;;;;;;0.10;0.10;;;;;;;17.10;100.00;97087.66;4960800;28;20038;-82
2023/08/20 04:51:34;;;;;;;0.08;0.08;;;;;;;17.11;100.00;97095.50;4975379;28;20041;-81
2023/08/20 04:54:21;;;;;;;0.10;0.10;;;;;;;17.05;100.00;97093.91;4973822;28;20137;-82
2023/08/20 04:57:07;;;;;;;0.00;0.00;;;;;;;17.09;100.00;97102.28;4954862;28;20061;-81
2023/08/20 04:59:53;;;;;;;0.10;0.10;;;;;;;17.13;100.00;97115.00;4963110;28;20057;-81
2023/08/20 05:02:44;;;;;;;0.10;0.10;;;;;;;17.17;100.00;97117.94;4941558;28;20034;-81
2023/08/20 05:05:34;;;;;;;0.10;0.10;;;;;;;17.25;100.00;97114.66;4944157;28;20562;-81
2023/08/20 05:08:21;;;;;;;0.10;0.10;;;;;;;17.35;100.00;97125.44;4929526;28;20065;-81
2023/08/20 05:11:07;;;;;;;0.10;0.10;;;;;;;17.44;100.00;97126.53;4956136;28;20132;-81
2023/08/20 05:13:55;;;;;;;0.10;0.10;;;;;;;17.54;100.00;97129.19;4943673;28;20043;-81
2023/08/20 05:16:41;;;;;;;0.10;0.10;;;;;;;17.59;100.00;97125.66;4956083;28;20762;-81
2023/08/20 05:19:27;;;;;;;0.10;0.10;;;;;;;17.58;100.00;97128.63;4941514;28;20097;-81
2023/08/20 05:22:13;;;;;;;0.10;0.10;;;;;;;17.67;100.00;97125.09;4940580;28;20038;-81
2023/08/20 05:24:59;;;;;;;0.10;0.10;;;;;;;17.78;100.00;97126.69;4942204;28;20078;-81
2023/08/20 05:27:46;;;;;;;0.20;0.20;;;;;;;17.87;100.00;97121.47;4930693;28;20145;-82
2023/08/20 05:30:33;;;;;;;0.10;0.10;;;;;;;17.91;100.00;97122.56;4947033;28;20124;-81
2023/08/20 05:33:19;;;;;;;0.10;0.10;;;;;;;17.85;100.00;97118.25;4960879;28;20046;-81
2023/08/20 05:36:05;;;;;;;0.10;0.10;;;;;;;17.84;100.00;97118.53;4976403;28;20113;-82
2023/08/20 05:38:51;;;;;;;0.10;0.10;;;;;;;17.74;100.00;97114.81;4961917;28;20888;-82
2023/08/20 05:41:37;;;;;;;0.05;0.05;;;;;;;17.71;100.00;97126.16;4962459;28;20046;-80
2023/08/20 05:44:23;;;;;;;0.10;0.10;;;;;;;17.72;100.00;97122.38;4969285;28;20597;-81
2023/08/20 05:47:09;;;;;;;0.10;0.10;;;;;;;17.82;100.00;97124.22;4967980;28;21004;-79
2023/08/20 05:49:55;;;;;;;0.10;0.10;;;;;;;17.93;100.00;97133.09;4975274;28;20290;-81
2023/08/20 05:52:41;;;;;;;0.10;0.10;;;;;;;18.03;100.00;97144.69;4975681;28;20522;-80
2023/08/20 05:55:27;;;;;;;0.03;0.03;;;;;;;18.08;100.00;97141.94;4970054;28;20475;-80
2023/08/20 05:58:14;;;;;;;0.13;0.13;;;;;;;18.09;100.00;97135.44;4984491;28;20858;-80
2023/08/20 06:01:00;;;;;;;0.10;0.10;;;;;;;18.11;100.00;97143.28;4975505;28;20068;-79
2023/08/20 06:03:46;;;;;;;0.10;0.10;;;;;;;18.14;100.00;97147.34;4971501;28;20046;-81
2023/08/20 06:06:32;;;;;;;0.05;0.05;;;;;;;18.16;100.00;97145.16;4985321;28;20080;-81
2023/08/20 06:09:18;;;;;;;0.10;0.10;;;;;;;18.22;100.00;97141.34;4972207;28;20049;-81
2023/08/20 06:12:04;;;;;;;0.10;0.10;;;;;;;18.31;100.00;97147.78;4982388;28;20513;-81
2023/08/20 06:14:50;;;;;;;0.10;0.10;;;;;;;18.45;100.00;97156.09;4982159;28;20053;-81
2023/08/20 06:17:35;;;;;;;0.10;0.10;;;;;;;18.51;100.00;97147.59;4982408;28;20039;-81
2023/08/20 06:20:21;;;;;;;0.10;0.10;;;;;;;18.53;100.00;97155.47;4982634;28;20050;-81
2023/08/20 06:23:07;;;;;;;0.10;0.10;;;;;;;18.59;100.00;97147.00;4982401;28;20037;-80
2023/08/20 06:25:53;;;;;;;0.10;0.10;;;;;;;18.74;100.00;97151.53;4979977;28;20053;-81
2023/08/20 06:28:39;;;;;;;0.10;0.10;;;;;;;18.92;100.00;97141.91;4981788;28;20042;-81
2023/08/20 06:31:25;;;;;;;0.10;0.10;;;;;;;19.23;100.00;97136.19;4981393;28;20887;-81
2023/08/20 06:34:10;;;;;;;0.10;0.10;;;;;;;19.40;100.00;97122.97;4984158;28;20120;-81
2023/08/20 06:36:56;;;;;;;0.10;0.10;;;;;;;19.36;100.00;97130.84;4981221;28;20034;-81
2023/08/20 06:39:42;;;;;;;0.10;0.10;;;;;;;19.33;100.00;97126.03;4984323;28;20267;-80
2023/08/20 06:42:28;;;;;;;0.00;0.00;;;;;;;19.37;100.00;97131.66;4982519;28;20712;-81
2023/08/20 06:45:14;;;;;;;0.00;0.00;;;;;;;19.38;100.00;97128.69;4974787;28;20050;-81
2023/08/20 06:48:00;;;;;;;0.10;0.10;;;;;;;19.45;100.00;97123.72;4981860;28;20045;-82
2023/08/20 06:50:46;;;;;;;0.10;0.10;;;;;;;19.51;100.00;97132.59;4982759;28;20084;-82
2023/08/20 06:53:31;;;;;;;0.00;0.00;;;;;;;19.53;100.00;97133.09;4982329;28;20041;-82
2023/08/20 06:56:17;;;;;;;0.10;0.10;;;;;;;19.52;100.00;97141.53;4980951;28;20184;-82
2023/08/20 06:59:03;;;;;;;0.10;0.10;;;;;;;19.57;100.00;97142.31;4976518;28;20038;-82
2023/08/20 07:01:49;;;;;;;0.10;0.10;;;;;;;19.73;100.00;97146.47;4980421;28;20031;-82
2023/08/20 07:04:35;;;;;;;0.10;0.10;;;;;;;20.01;100.00;97149.41;4982721;28;20079;-82
2023/08/20 07:07:22;;;;;;;0.10;0.10;;;;;;;20.41;100.00;97141.75;4981108;28;20842;-81
2023/08/20 07:10:08;;;;;;;0.00;0.00;;;;;;;20.96;100.00;97131.09;4980736;28;20076;-81
2023/08/20 07:12:53;;;;;;;0.10;0.10;;;;;;;21.38;100.00;97125.44;4982305;28;20042;-81
2023/08/20 07:15:39;;;;;;;0.08;0.08;;;;;;;21.48;100.00;97115.47;4982563;28;20386;-81
2023/08/20 07:18:25;;;;;;;0.10;0.10;;;;;;;21.58;100.00;97116.06;4980872;28;20038;-81
2023/08/20 07:21:11;;;;;;;0.10;0.10;;;;;;;21.61;100.00;97112.75;4971912;28;20408;-82
2023/08/20 07:23:57;;;;;;;0.10;0.10;;;;;;;21.41;100.00;97113.16;4978007;28;20042;-82
2023/08/20 07:26:43;;;;;;;0.10;0.10;;;;;;;21.33;100.00;97125.56;4979363;28;20038;-82
2023/08/20 07:29:30;;;;;;;0.10;0.10;;;;;;;21.23;100.00;97127.63;4979690;28;20423;-82
2023/08/20 07:32:15;;;;;;;0.10;0.10;;;;;;;21.24;100.00;97129.22;4980408;28;20599;-83
2023/08/20 07:35:02;;;;;;;0.10;0.10;;;;;;;21.29;100.00;97131.88;4983116;28;20038;-82
2023/08/20 07:37:47;;;;;;;0.10;0.10;;;;;;;21.37;100.00;97126.56;4984305;28;20122;-82
2023/08/20 07:40:33;;;;;;;0.10;0.10;;;;;;;21.48;100.00;97132.63;4972392;28;20034;-82
2023/08/20 07:43:19;;;;;;;0.00;0.00;;;;;;;21.41;100.00;97141.19;4986845;28;20046;-83
2023/08/20 07:46:06;;;;;;;0.10;0.10;;;;;;;21.17;100.00;97150.56;4983063;28;20046;-82
2023/08/20 07:48:52;;;;;;;0.10;0.10;;;;;;;21.13;100.00;97153.09;4984438;28;20045;-83
2023/08/20 07:51:38;;;;;;;0.10;0.10;;;;;;;21.21;100.00;97152.41;4984780;28;20092;-82
2023/08/20 07:54:24;;;;;;;0.10;0.10;;;;;;;21.32;100.00;97148.44;4983180;28;20053;-83
2023/08/20 07:57:10;;;;;;;0.10;0.10;;;;;;;21.54;100.00;97155.91;4984469;28;20787;-82
2023/08/20 07:59:56;;;;;;;0.10;0.10;;;;;;;21.66;100.00;97139.06;4983683;28;20038;-82
2023/08/20 08:02:42;;;;;;;0.10;0.10;;;;;;;21.75;100.00;97142.69;4983480;28;20041;-81
2023/08/20 08:05:30;;;;;;;0.00;0.00;;;;;;;21.91;100.00;97143.19;4984496;28;20049;-83
2023/08/20 08:08:17;;;;;;;0.10;0.10;;;;;;;22.03;100.00;97139.94;4985399;28;20072;-82
2023/08/20 08:11:03;;;;;;;0.10;0.10;;;;;;;22.17;100.00;97136.09;4982745;28;20042;-83
2023/08/20 08:13:49;;;;;;;0.03;0.03;;;;;;;22.16;100.00;97139.13;4985918;28;20045;-83
2023/08/20 08:16:35;;;;;;;0.00;0.00;;;;;;;22.29;100.00;97134.75;4984511;28;20042;-83
2023/08/20 08:19:20;;;;;;;0.00;0.00;;;;;;;22.39;100.00;97140.78;5009601;28;20215;-82
2023/08/20 08:22:06;;;;;;;0.05;0.05;;;;;;;22.48;100.00;97152.56;5010040;28;20048;-81
2023/08/20 08:24:52;;;;;;;0.00;0.00;;;;;;;22.60;100.00;97154.75;5000288;28;20104;-83
2023/08/20 08:27:38;;;;;;;0.10;0.10;;;;;;;22.70;100.00;97159.16;4986418;28;20041;-83
2023/08/20 08:30:24;;;;;;;0.00;0.00;;;;;;;22.79;100.00;97157.28;4986153;28;20510;-83
2023/08/20 08:33:10;;;;;;;0.10;0.10;;;;;;;22.93;100.00;97160.78;4985660;28;20050;-83
2023/08/20 08:35:56;;;;;;;0.00;0.00;;;;;;;23.05;100.00;97158.31;4967181;28;20042;-83
2023/08/20 08:38:42;;;;;;;0.10;0.10;;;;;;;23.21;100.00;97153.25;4985236;28;20049;-82
2023/08/20 08:41:30;;;;;;;0.10;0.10;;;;;;;23.36;100.00;97160.25;4983487;28;20046;-83
2023/08/20 08:44:16;;;;;;;0.00;0.00;;;;;;;23.44;100.00;97155.94;4961934;28;20055;-83
2023/08/20 08:47:04;;;;;;;0.00;0.00;;;;;;;23.54;100.00;97156.47;4964229;28;20038;-83
2023/08/20 08:49:50;;;;;;;0.00;0.00;;;;;;;23.63;100.00;97170.97;4965883;28;20042;-83
2023/08/20 08:52:39;;;;;;;0.00;0.00;;;;;;;23.64;100.00;97166.31;4964802;28;20034;-81
2023/08/20 08:55:25;;;;;;;0.10;0.10;;;;;;;23.58;100.00;97165.66;4963988;28;20042;-81
2023/08/20 08:58:11;;;;;;;0.00;0.00;;;;;;;23.80;100.00;97169.44;4963472;28;20037;-81
2023/08/20 09:00:57;;;;;;;0.05;0.05;;;;;;;24.06;100.00;97164.06;4962979;28;20049;-81
2023/08/20 09:03:43;;;;;;;0.03;0.03;;;;;;;23.77;100.00;97173.63;4966229;28;20046;-83
2023/08/20 09:06:48;;;;;;;0.10;0.10;;;;;;;23.70;100.00;97167.81;4962980;28;20136;-82
2023/08/20 09:09:34;;;;;;;0.00;0.00;;;;;;;23.99;100.00;97164.53;4964973;28;20052;-83
2023/08/20 09:12:20;;;;;;;0.10;0.10;;;;;;;24.23;100.00;97176.94;4964234;28;20053;-83
2023/08/20 09:15:10;;;;;;;0.00;0.00;;;;;;;24.35;100.00;97171.66;4967731;28;20042;-83
2023/08/20 09:17:56;;;;;;;;;;;;;;;24.14;100.00;97180.47;4964738;28;20034;-83
2023/08/20 09:20:42;;;;;;;0.10;0.10;;;;;;;24.18;100.00;97170.50;4965145;28;19918;-83
2023/08/20 09:23:29;;;;;;;0.10;0.10;;;;;;;24.42;100.00;97163.78;4964314;28;20077;-83
2023/08/20 09:26:15;;;;;;;0.10;0.10;;;;;;;24.72;100.00;97162.84;4962721;28;20045;-82
2023/08/20 09:29:03;;;;;;;0.10;0.10;;;;;;;24.78;100.00;97168.16;4964355;28;20671;-82
2023/08/20 09:31:49;;;;;;;0.10;0.10;;;;;;;24.85;100.00;97160.25;4962763;28;20035;-82
2023/08/20 09:34:41;;;;;;;0.10;0.10;;;;;;;25.11;100.00;97162.97;4964314;28;20041;-83
2023/08/20 09:37:26;;;;;;;0.10;0.10;;;;;;;25.32;100.00;97174.06;4963781;28;20104;-83
2023/08/20 09:40:12;;;;;;;0.10;0.10;;;;;;;25.26;100.00;97165.22;4962298;28;20250;-83
2023/08/20 09:43:01;;;;;;;0.00;0.00;;;;;;;25.53;100.00;97169.50;4973524;28;20050;-83
2023/08/20 09:45:48;;;;;;;0.10;0.10;;;;;;;25.74;100.00;97173.13;4985253;28;20069;-82
2023/08/20 09:48:37;;;;;;;0.00;0.00;;;;;;;26.11;100.00;97162.44;4982314;28;20130;-82
2023/08/20 09:51:28;;;;;;;0.00;0.00;;;;;;;26.41;100.00;97167.94;4982990;28;20141;-83
2023/08/20 09:54:25;;;;;;;0.10;0.10;;;;;;;26.58;100.00;97170.53;4983031;28;20042;-83
2023/08/20 09:57:27;;;;;;;0.00;0.00;;;;;;;27.08;100.00;97170.47;4968579;28;20039;-82
2023/08/20 10:00:14;;;;;;;0.10;0.10;;;;;;;27.21;100.00;97171.28;4982796;28;20073;-83
2023/08/20 10:03:00;;;;;;;0.00;0.00;;;;;;;27.46;100.00;97169.38;4982660;28;20063;-84
2023/08/20 10:05:48;;;;;;;0.00;0.00;;;;;;;27.46;100.00;97170.19;4984211;28;20073;-83
2023/08/20 10:08:34;;;;;;;0.00;0.00;;;;;;;27.17;100.00;97168.44;4983732;28;20041;-83
2023/08/20 10:11:20;;;;;;;0.00;0.00;;;;;;;27.26;100.00;97165.59;4983641;28;20042;-82
2023/08/20 10:14:06;;;;;;;0.10;0.10;;;;;;;27.30;100.00;97166.50;4984828;28;20041;-84
2023/08/20 10:16:53;;;;;;;0.00;0.00;;;;;;;27.21;100.00;97161.09;4983758;28;20042;-82
2023/08/20 10:19:39;;;;;;;0.10;0.10;;;;;;;27.56;100.00;97165.41;4982644;28;20148;-82
2023/08/20 10:22:37;;;;;;;0.00;0.00;;;;;;;27.94;100.00;97167.88;4981802;28;20486;-83
2023/08/20 10:25:25;;;;;;;0.10;0.10;;;;;;;28.29;100.00;97166.25;4970273;28;20053;-83
2023/08/20 10:28:24;;;;;;;0.10;0.10;;;;;;;28.08;100.00;97162.00;4982308;28;20168;-82
2023/08/20 10:31:12;;;;;;;0.10;0.10;;;;;;;27.55;100.00;97164.63;4982442;28;20041;-83
2023/08/20 10:33:58;;;;;;;0.10;0.10;;;;;;;27.97;100.00;97178.19;4982710;28;20037;-82
2023/08/20 10:36:50;;;;;;;0.10;0.10;;;;;;;28.78;100.00;97168.06;4983938;28;20042;-82
2023/08/20 10:39:36;;;;;;;0.10;0.10;;;;;;;29.63;100.00;97162.16;4981344;28;20046;-83
2023/08/20 10:42:26;;;;;;;0.00;0.00;;;;;;;29.69;100.00;97166.28;4982651;28;20703;-83
2023/08/20 10:45:12;;;;;;;0.10;0.10;;;;;;;29.91;100.00;97161.28;4982671;28;20037;-83
2023/08/20 10:47:58;;;;;;;0.10;0.10;;;;;;;29.96;100.00;97161.81;4982577;28;20592;-83
2023/08/20 10:50:45;;;;;;;0.10;0.10;;;;;;;30.12;99.23;97161.84;4983892;28;20034;-83
2023/08/20 10:53:31;;;;;;;0.00;0.00;;;;;;;29.90;100.00;97167.97;4982038;28;20724;-82
2023/08/20 10:56:17;;;;;;;0.00;0.00;;;;;;;29.72;100.00;97169.47;4982277;28;20129;-82
2023/08/20 10:59:13;;;;;;;0.10;0.10;;;;;;;30.41;100.00;97167.97;4983165;28;20049;-82
2023/08/20 11:01:59;;;;;;;0.10;0.10;;;;;;;31.82;94.58;97173.94;4981710;28;20042;-82
2023/08/20 11:04:45;;;;;;;0.00;0.00;;;;;;;30.96;98.37;97174.28;4982530;28;20535;-83
2023/08/20 11:07:31;;;;;;;0.00;0.00;;;;;;;30.17;100.00;97175.34;4983932;28;20053;-83
2023/08/20 11:10:17;;;;;;;0.00;0.00;;;;;;;30.75;99.40;97174.69;4985118;28;20522;-83
2023/08/20 11:13:05;;;;;;;0.00;0.00;;;;;;;31.23;97.51;97178.81;4985526;28;20038;-83
2023/08/20 11:15:51;;;;;;;0.10;0.10;;;;;;;36.49;71.86;97167.22;4984574;28;20053;-83
2023/08/20 11:18:37;;;;;;;0.10;0.10;;;;;;;39.69;50.33;97170.53;4987386;28;20466;-84
2023/08/20 11:21:23;;;;;;;0.00;0.00;;;;;;;36.39;61.39;97176.41;4985588;28;20488;-83
2023/08/20 11:24:10;;;;;;;0.00;0.00;;;;;;;32.77;88.15;97178.56;4984869;28;20072;-84
2023/08/20 11:26:55;;;;;;;0.00;0.00;;;;;;;31.18;94.54;97172.75;4985040;28;20632;-84
2023/08/20 11:29:43;;;;;;;0.10;0.10;;;;;;;32.80;90.79;97173.06;4987118;28;20097;-82
2023/08/20 11:32:30;;;;;;;0.35;0.20;;;;;;;38.46;56.24;97164.88;4984115;28;20046;-84
2023/08/20 11:35:17;;;;;;;0.20;0.20;;;;;;;41.83;39.52;97169.25;4987209;28;20045;-85
2023/08/20 11:38:05;;;;;;;0.10;0.10;;;;;;;42.62;33.60;97171.63;4985906;28;20510;-86
2023/08/20 11:40:51;;;;;;;0.20;0.20;;;;;;;39.96;37.24;97174.09;4985966;28;20048;-85
2023/08/20 11:43:37;;;;;;;0.10;0.10;;;;;;;42.55;33.61;97175.44;4986514;28;20101;-85
2023/08/20 11:46:24;;;;;;;0.10;0.10;;;;;;;43.64;28.70;97169.06;4987116;28;20610;-83
2023/08/20 11:49:11;;;;;;;0.00;0.00;;;;;;;44.59;27.96;97167.13;4985783;28;20734;-85
2023/08/20 11:51:57;;;;;;;0.10;0.10;;;;;;;42.67;31.84;97173.91;4971723;28;20045;-85
2023/08/20 11:54:43;;;;;;;0.10;0.10;;;;;;;44.08;27.74;97172.88;4972139;28;20037;-83
2023/08/20 11:57:30;;;;;;;0.10;0.10;;;;;;;45.49;25.85;97175.91;4986792;28;20145;-84
2023/08/20 12:00:26;;;;;;;0.10;0.10;;;;;;;47.68;22.11;97163.94;4986333;28;20037;-84
2023/08/20 12:03:12;;;;;;;0.00;0.00;;;;;;;44.97;25.26;97158.50;4973729;28;20069;-84
2023/08/20 12:05:58;;;;;;;0.00;0.00;;;;;;;43.06;27.69;97161.56;4986798;28;20049;-81
2023/08/20 12:08:44;;;;;;;0.00;0.00;;;;;;;41.73;33.17;97163.44;4978106;28;20030;-82
2023/08/20 12:11:30;;;;;;;0.10;0.10;;;;;;;42.63;33.76;97159.16;4985029;28;20337;-82
2023/08/20 12:14:20;;;;;;;0.10;0.10;;;;;;;43.74;31.46;97155.88;4984534;28;20042;-81
2023/08/20 12:17:06;;;;;;;;;;;;;;;41.60;33.02;97159.72;4988583;28;20040;-82
2023/08/20 12:19:51;;;;;;;0.00;0.00;;;;;;;40.02;41.93;97160.44;4986264;28;20824;-82
2023/08/20 12:22:38;;;;;;;0.10;0.10;;;;;;;40.93;40.83;97159.94;4986701;28;20038;-82
2023/08/20 12:25:24;;;;;;;0.10;0.10;;;;;;;42.57;34.67;97149.66;4993767;28;20633;-82
2023/08/20 12:28:10;;;;;;;0.00;0.00;;;;;;;39.61;45.64;97147.44;4996063;28;20133;-82
2023/08/20 12:30:56;;;;;;;0.00;0.00;;;;;;;39.12;49.72;97148.94;4989670;28;20819;-81
2023/08/20 12:33:41;;;;;;;0.00;0.00;;;;;;;36.09;67.79;97153.72;4984262;28;20045;-82
2023/08/20 12:36:28;;;;;;;0.00;0.00;;;;;;;36.13;69.02;97155.34;4984665;28;20045;-82
2023/08/20 12:39:14;;;;;;;0.10;0.10;;;;;;;36.62;64.59;97153.66;4985134;28;20042;-82
2023/08/20 12:41:59;;;;;;;0.10;0.10;;;;;;;42.41;34.26;97152.50;4973088;28;20440;-82
2023/08/20 12:44:45;;;;;;;0.00;0.00;;;;;;;43.28;30.95;97147.63;4987813;28;20958;-82
2023/08/20 12:47:31;;;;;;;0.00;0.00;;;;;;;40.91;37.15;97156.78;4982517;28;20042;-82
2023/08/20 12:50:17;;;;;;;0.00;0.00;;;;;;;39.72;40.72;97150.09;4985063;28;20038;-82
2023/08/20 12:53:03;;;;;;;0.00;0.00;;;;;;;37.39;51.67;97156.53;4984322;28;20093;-81
2023/08/20 12:55:49;;;;;;;0.10;0.10;;;;;;;40.76;35.13;97154.69;4985241;28;20046;-82
2023/08/20 12:58:35;;;;;;;0.00;0.00;;;;;;;41.21;33.50;97154.97;4983631;28;20046;-81